Oluja — V7QE8 — position and weather

sailwx.info

Track history (hours):
 
Tides and Currents Weather Stations Pressure Air Temp Water Temp Dewpoint Dewpoint Depression Visibility Wind Speed Wind Dir Waves Ship Positions

Oluja

Last reported at 2016-Jul-23 07:09 UTC. Time now 2016-Jul-27 09:42 UTC.
Position N 38°15' E 024°50'.

Length 188 m; draft 10.7 m.

Type: Cargo ship. MMSI: 538003345.

Date/timePositionNaut miles runAvg speedWind from/ knotsBaromVisibWave heightAir tempDewpointWater temp
2016-Jul-23 07:09N 38°15' E 024°50'4111.4
2016-Jul-23 03:33N 37°44' E 024°17'1312.0
2016-Jul-23 02:28N 37°35' E 024°05'1010.5
2016-Jul-23 01:33N 37°34' E 023°53'1110.6
2016-Jul-23 00:33N 37°40' E 023°42'1111.3
2016-Jul-22 23:33N 37°50' E 023°35'3 2.6
2016-Jul-22 22:31N 37°52' E 023°32'0 0.0
2016-Jul-22 21:31N 37°52' E 023°32'0 0.0
2016-Jul-22 20:31N 37°52' E 023°32'0 0.0
2016-Jul-22 19:31N 37°52' E 023°32'0 0.0
2016-Jul-22 18:31N 37°52' E 023°32'0 0.0
2016-Jul-22 17:31N 37°52' E 023°32'0 0.5
2016-Jul-22 16:33N 37°52' E 023°33'5 5.4
2016-Jul-22 15:33N 37°50' E 023°39'1111.4
2016-Jul-22 14:33N 37°39' E 023°45'1212.0
2016-Jul-22 13:33N 37°28' E 023°42'1211.8
2016-Jul-22 12:32N 37°16' E 023°38'42911.0
2016-Jul-20 21:27N 36°37' E 014°44'1112.0
2016-Jul-20 20:33N 36°39' E 014°31'1212.3
2016-Jul-20 19:33N 36°41' E 014°16'1312.7
2016-Jul-20 18:33N 36°43' E 014°00'1312.8
2016-Jul-20 17:33N 36°45' E 013°44'1312.8
2016-Jul-20 16:33N 36°48' E 013°29'1313.0
2016-Jul-20 15:33N 36°50' E 013°13'1212.5
2016-Jul-20 14:33N 36°52' E 012°57'1212.2
2016-Jul-20 13:33N 36°54' E 012°42'1212.2
2016-Jul-20 12:33N 36°56' E 012°27'1211.6
2016-Jul-20 11:33N 36°58' E 012°13'1310.3
2016-Jul-20 10:16N 37°00' E 011°57'1110.0
2016-Jul-20 09:12N 37°06' E 011°45'12711.4
2016-Jul-19 22:05N 37°22' E 009°07'28211.3
2016-Jul-18 21:11N 37°07' E 003°13'1011.9
2016-Jul-18 20:19N 37°05' E 003°00'912.2
2016-Jul-18 19:33N 37°03' E 002°49'1211.6
2016-Jul-18 18:33N 36°59' E 002°35'1811.9
2016-Jul-18 17:05N 36°56' E 002°13'711.4
2016-Jul-18 16:30N 36°54' E 002°05'1111.7
2016-Jul-18 15:32N 36°51' E 001°52'1111.4
2016-Jul-18 14:33N 36°49' E 001°38'1211.4
2016-Jul-18 13:33N 36°46' E 001°24'3612.0
2016-Jul-18 10:34N 36°39' E 000°40'1211.5
2016-Jul-18 09:33N 36°36' E 000°26'1311.6
2016-Jul-18 08:26N 36°33' E 000°11'4712.1
2016-Jul-18 04:33N 36°24' W 000°47'5911.6
2016-Jul-17 23:27N 36°15' W 001°59'15712.1
2016-Jul-17 10:28N 35°59' W 005°12'1111.9
2016-Jul-17 09:33N 35°58' W 005°26'49111.2
2016-Jul-15 13:33N 29°53' W 011°57'  
Track history (hours):
 
Tides and Currents Weather Stations Pressure Air Temp Water Temp Dewpoint Dewpoint Depression Visibility Wind Speed Wind Dir Waves Ship Positions

Oluja

Last reported at 2016-Jul-23 07:09 UTC. Time now 2016-Jul-27 09:42 UTC.
Position N 38°15' E 024°50'.

Length 188 m; draft 10.7 m.

Type: Cargo ship. MMSI: 538003345.

Date/timePositionNaut miles runAvg speedWind from/ knotsBaromVisibWave heightAir tempDewpointWater temp
2016-Jul-23 07:09N 38°15' E 024°50'4111.4
2016-Jul-23 03:33N 37°44' E 024°17'1312.0
2016-Jul-23 02:28N 37°35' E 024°05'1010.5
2016-Jul-23 01:33N 37°34' E 023°53'1110.6
2016-Jul-23 00:33N 37°40' E 023°42'1111.3
2016-Jul-22 23:33N 37°50' E 023°35'3 2.6
2016-Jul-22 22:31N 37°52' E 023°32'0 0.0
2016-Jul-22 21:31N 37°52' E 023°32'0 0.0
2016-Jul-22 20:31N 37°52' E 023°32'0 0.0
2016-Jul-22 19:31N 37°52' E 023°32'0 0.0
2016-Jul-22 18:31N 37°52' E 023°32'0 0.0
2016-Jul-22 17:31N 37°52' E 023°32'0 0.5
2016-Jul-22 16:33N 37°52' E 023°33'5 5.4
2016-Jul-22 15:33N 37°50' E 023°39'1111.4
2016-Jul-22 14:33N 37°39' E 023°45'1212.0
2016-Jul-22 13:33N 37°28' E 023°42'1211.8
2016-Jul-22 12:32N 37°16' E 023°38'42911.0
2016-Jul-20 21:27N 36°37' E 014°44'1112.0
2016-Jul-20 20:33N 36°39' E 014°31'1212.3
2016-Jul-20 19:33N 36°41' E 014°16'1312.7
2016-Jul-20 18:33N 36°43' E 014°00'1312.8
2016-Jul-20 17:33N 36°45' E 013°44'1312.8
2016-Jul-20 16:33N 36°48' E 013°29'1313.0
2016-Jul-20 15:33N 36°50' E 013°13'1212.5
2016-Jul-20 14:33N 36°52' E 012°57'1212.2
2016-Jul-20 13:33N 36°54' E 012°42'1212.2
2016-Jul-20 12:33N 36°56' E 012°27'1211.6
2016-Jul-20 11:33N 36°58' E 012°13'1310.3
2016-Jul-20 10:16N 37°00' E 011°57'1110.0
2016-Jul-20 09:12N 37°06' E 011°45'12711.4
2016-Jul-19 22:05N 37°22' E 009°07'28211.3
2016-Jul-18 21:11N 37°07' E 003°13'1011.9
2016-Jul-18 20:19N 37°05' E 003°00'912.2
2016-Jul-18 19:33N 37°03' E 002°49'1211.6
2016-Jul-18 18:33N 36°59' E 002°35'1811.9
2016-Jul-18 17:05N 36°56' E 002°13'711.4
2016-Jul-18 16:30N 36°54' E 002°05'1111.7
2016-Jul-18 15:32N 36°51' E 001°52'1111.4
2016-Jul-18 14:33N 36°49' E 001°38'1211.4
2016-Jul-18 13:33N 36°46' E 001°24'3612.0
2016-Jul-18 10:34N 36°39' E 000°40'1211.5
2016-Jul-18 09:33N 36°36' E 000°26'1311.6
2016-Jul-18 08:26N 36°33' E 000°11'4712.1
2016-Jul-18 04:33N 36°24' W 000°47'5911.6
2016-Jul-17 23:27N 36°15' W 001°59'15712.1
2016-Jul-17 10:28N 35°59' W 005°12'1111.9
2016-Jul-17 09:33N 35°58' W 005°26'49111.2
2016-Jul-15 13:33N 29°53' W 011°57'  

Dump ship's entire track history